KECG

Details ICAO KECG (ECG)
Name ELIZABETH CITY CGAS RGNL
Region United States
Timezone America/New_York (UTC-5.0)
Plans Departing 7
Arriving 11
Stats Elevation 12 ft / 4 m (AMSL)
Location 36.260476° -76.175356°
Runways 2
Magnetic Variation 10.800° W
Sunrise 2017-12-11 12:07:28 UTC / 2017-12-11 07:07:28 Local
Sunset 2017-12-11 21:51:33 UTC / 2017-12-11 16:51:33 Local
Advertisement - Login to hide

Runways

ID Width Length Bearing (true) Bearing (mag) Surface Threshold Offset Overrun Length
01 150 ft / 46 m 4,529 ft / 1,380 m 2.47° 13.27° Asphalt 299 ft / 91 m 0 ft / 0 m
10 150 ft / 46 m 7,204 ft / 2,196 m 92.41° 103.21° Concrete 0 ft / 0 m 0 ft / 0 m
19 150 ft / 46 m 4,529 ft / 1,380 m 182.47° 193.27° Asphalt 0 ft / 0 m 0 ft / 0 m
28 150 ft / 46 m 7,204 ft / 2,196 m 272.43° 283.23° Concrete 0 ft / 0 m 0 ft / 0 m

Map

Weather


0- 5 10 15 20 25 30 35+ Temperature / ° C

Clouds and Precipitation
Forecast for 2017-12-12 06:00 UTC. Updated an hour ago

Ground ~20,000 ft ~40,000 ft Winds

METAR

KECG 120354Z 16005KT 10SM CLR 06/03 A2998 RMK AO2 SLP153 T00560033

TAF

TAF TAF KECG 112320Z 1200/1224 15005KT P6SM SKC FM121100 22009KT P6SM SKC FM121400 23013KT P6SM SCT250 FM121800 25015G23KT P6SM BKN050

Frequencies

Recorded 118.52 MHz ASOS
Unicom 122.95 MHz UNICOM
Tower 120.50 MHz TWR
Unicom 120.50 MHz CTAF
Ground 121.90 MHz GND
Approach 119.55 MHz NORFOLK APP/DEP
Warning: Do not use this data for real-world aviation or navigation. No guarantee of current accuracy is given.